sensor_id;sensor_type;location;lat;lon;timestamp;pressure;altitude;pressure_sealevel;temperature;humidity
35435;BME280;21556;55.782;37.528;2023-07-28T00:01:40;98177.88;;;24.28;100.00
35435;BME280;21556;55.782;37.528;2023-07-28T00:04:06;98175.50;;;24.38;100.00
35435;BME280;21556;55.782;37.528;2023-07-28T00:06:36;98185.84;;;24.30;100.00
35435;BME280;21556;55.782;37.528;2023-07-28T00:09:02;98186.28;;;24.22;100.00
35435;BME280;21556;55.782;37.528;2023-07-28T00:11:30;98192.53;;;24.22;100.00
35435;BME280;21556;55.782;37.528;2023-07-28T00:13:56;98196.81;;;24.25;100.00
35435;BME280;21556;55.782;37.528;2023-07-28T00:16:21;98203.50;;;24.75;100.00
35435;BME280;21556;55.782;37.528;2023-07-28T00:18:47;98220.09;;;24.53;100.00
35435;BME280;21556;55.782;37.528;2023-07-28T00:21:12;98221.84;;;24.95;100.00
35435;BME280;21556;55.782;37.528;2023-07-28T00:23:40;98226.00;;;24.58;100.00
35435;BME280;21556;55.782;37.528;2023-07-28T00:26:06;98234.63;;;24.06;100.00
35435;BME280;21556;55.782;37.528;2023-07-28T00:28:31;98231.97;;;24.20;100.00
35435;BME280;21556;55.782;37.528;2023-07-28T00:30:57;98235.59;;;24.19;100.00
35435;BME280;21556;55.782;37.528;2023-07-28T00:33:23;98241.34;;;24.70;100.00
35435;BME280;21556;55.782;37.528;2023-07-28T00:35:49;98227.44;;;24.21;100.00
35435;BME280;21556;55.782;37.528;2023-07-28T00:38:14;98234.06;;;24.15;100.00
35435;BME280;21556;55.782;37.528;2023-07-28T00:40:40;98236.06;;;24.55;100.00
35435;BME280;21556;55.782;37.528;2023-07-28T00:43:06;98240.00;;;24.35;100.00
35435;BME280;21556;55.782;37.528;2023-07-28T00:45:32;98233.66;;;24.07;100.00
35435;BME280;21556;55.782;37.528;2023-07-28T00:47:58;98221.06;;;24.23;100.00
35435;BME280;21556;55.782;37.528;2023-07-28T00:50:25;98204.56;;;24.58;100.00
35435;BME280;21556;55.782;37.528;2023-07-28T00:52:51;98213.78;;;23.97;100.00
35435;BME280;21556;55.782;37.528;2023-07-28T00:55:17;98220.38;;;24.06;100.00
35435;BME280;21556;55.782;37.528;2023-07-28T00:57:43;98214.72;;;24.10;100.00
35435;BME280;21556;55.782;37.528;2023-07-28T01:00:09;98208.50;;;23.95;100.00
35435;BME280;21556;55.782;37.528;2023-07-28T01:02:36;98202.00;;;24.14;100.00
35435;BME280;21556;55.782;37.528;2023-07-28T01:05:02;98196.75;;;24.12;100.00
35435;BME280;21556;55.782;37.528;2023-07-28T01:10:15;98209.78;;;24.04;100.00
35435;BME280;21556;55.782;37.528;2023-07-28T01:12:41;98195.88;;;24.26;100.00
35435;BME280;21556;55.782;37.528;2023-07-28T01:15:07;98190.50;;;24.55;100.00
35435;BME280;21556;55.782;37.528;2023-07-28T01:17:33;98189.56;;;24.56;100.00
35435;BME280;21556;55.782;37.528;2023-07-28T01:19:59;98186.09;;;24.95;100.00
35435;BME280;21556;55.782;37.528;2023-07-28T01:25:02;98183.28;;;25.11;100.00
35435;BME280;21556;55.782;37.528;2023-07-28T01:27:33;98176.88;;;25.13;100.00
35435;BME280;21556;55.782;37.528;2023-07-28T01:29:59;98171.72;;;25.10;100.00
35435;BME280;21556;55.782;37.528;2023-07-28T01:32:26;98170.91;;;25.08;100.00
35435;BME280;21556;55.782;37.528;2023-07-28T01:34:52;98168.00;;;24.98;100.00
35435;BME280;21556;55.782;37.528;2023-07-28T01:37:20;98161.34;;;25.04;100.00
35435;BME280;21556;55.782;37.528;2023-07-28T01:39:47;98161.47;;;25.03;100.00
35435;BME280;21556;55.782;37.528;2023-07-28T01:42:13;98160.56;;;24.34;100.00
35435;BME280;21556;55.782;37.528;2023-07-28T01:44:39;98160.13;;;24.68;100.00
35435;BME280;21556;55.782;37.528;2023-07-28T01:47:04;98154.19;;;24.08;100.00
35435;BME280;21556;55.782;37.528;2023-07-28T01:49:30;98153.50;;;23.75;100.00
35435;BME280;21556;55.782;37.528;2023-07-28T01:51:56;98157.06;;;24.05;100.00
35435;BME280;21556;55.782;37.528;2023-07-28T01:54:22;98155.91;;;23.80;100.00
35435;BME280;21556;55.782;37.528;2023-07-28T01:56:48;98151.88;;;24.16;100.00
35435;BME280;21556;55.782;37.528;2023-07-28T01:59:13;98159.31;;;24.11;100.00
35435;BME280;21556;55.782;37.528;2023-07-28T02:01:39;98154.84;;;23.97;100.00
35435;BME280;21556;55.782;37.528;2023-07-28T02:04:05;98154.44;;;24.46;100.00
35435;BME280;21556;55.782;37.528;2023-07-28T02:06:32;98145.91;;;24.25;100.00
35435;BME280;21556;55.782;37.528;2023-07-28T02:08:57;98148.31;;;24.30;100.00
35435;BME280;21556;55.782;37.528;2023-07-28T02:11:23;98155.03;;;24.08;100.00
35435;BME280;21556;55.782;37.528;2023-07-28T02:13:49;98164.91;;;24.08;100.00
35435;BME280;21556;55.782;37.528;2023-07-28T02:16:16;98164.97;;;23.92;100.00
35435;BME280;21556;55.782;37.528;2023-07-28T02:18:44;98153.03;;;23.97;100.00
35435;BME280;21556;55.782;37.528;2023-07-28T02:21:09;98148.63;;;23.96;100.00
35435;BME280;21556;55.782;37.528;2023-07-28T02:23:35;98136.19;;;24.65;100.00
35435;BME280;21556;55.782;37.528;2023-07-28T02:26:04;98152.94;;;24.69;100.00
35435;BME280;21556;55.782;37.528;2023-07-28T02:28:30;98137.97;;;24.38;100.00
35435;BME280;21556;55.782;37.528;2023-07-28T02:30:59;98144.16;;;23.97;100.00
35435;BME280;21556;55.782;37.528;2023-07-28T02:33:27;98147.75;;;24.10;100.00
35435;BME280;21556;55.782;37.528;2023-07-28T02:35:55;98159.06;;;24.01;100.00
35435;BME280;21556;55.782;37.528;2023-07-28T02:38:21;98156.72;;;24.52;100.00
35435;BME280;21556;55.782;37.528;2023-07-28T02:40:47;98173.13;;;23.90;100.00
35435;BME280;21556;55.782;37.528;2023-07-28T02:43:12;98180.56;;;24.14;100.00
35435;BME280;21556;55.782;37.528;2023-07-28T02:45:38;98183.44;;;23.96;100.00
35435;BME280;21556;55.782;37.528;2023-07-28T02:48:04;98194.25;;;23.95;100.00
35435;BME280;21556;55.782;37.528;2023-07-28T02:50:32;98195.56;;;23.73;100.00
35435;BME280;21556;55.782;37.528;2023-07-28T02:52:57;98203.72;;;23.86;100.00
35435;BME280;21556;55.782;37.528;2023-07-28T02:55:23;98217.88;;;24.02;100.00
35435;BME280;21556;55.782;37.528;2023-07-28T02:57:49;98202.59;;;24.05;100.00
35435;BME280;21556;55.782;37.528;2023-07-28T03:00:16;98209.16;;;23.99;100.00
35435;BME280;21556;55.782;37.528;2023-07-28T03:02:42;98209.25;;;23.69;100.00
35435;BME280;21556;55.782;37.528;2023-07-28T03:05:08;98211.34;;;23.78;100.00
35435;BME280;21556;55.782;37.528;2023-07-28T03:08:01;98175.81;;;24.47;100.00
35435;BME280;21556;55.782;37.528;2023-07-28T03:10:27;98153.88;;;24.41;100.00
35435;BME280;21556;55.782;37.528;2023-07-28T03:12:53;98157.94;;;24.61;100.00
35435;BME280;21556;55.782;37.528;2023-07-28T03:15:19;98173.00;;;24.49;100.00
35435;BME280;21556;55.782;37.528;2023-07-28T03:17:46;98209.25;;;24.69;100.00
35435;BME280;21556;55.782;37.528;2023-07-28T03:20:12;98227.63;;;24.75;100.00
35435;BME280;21556;55.782;37.528;2023-07-28T03:22:38;98240.13;;;24.47;100.00
35435;BME280;21556;55.782;37.528;2023-07-28T03:25:05;98255.13;;;24.64;100.00
35435;BME280;21556;55.782;37.528;2023-07-28T03:27:34;98247.00;;;24.66;100.00
35435;BME280;21556;55.782;37.528;2023-07-28T03:30:02;98219.97;;;24.69;100.00
35435;BME280;21556;55.782;37.528;2023-07-28T03:32:33;98210.53;;;24.49;100.00
35435;BME280;21556;55.782;37.528;2023-07-28T03:34:59;98211.56;;;24.03;100.00
35435;BME280;21556;55.782;37.528;2023-07-28T03:37:28;98222.94;;;23.93;100.00
35435;BME280;21556;55.782;37.528;2023-07-28T03:39:54;98235.03;;;23.70;100.00
35435;BME280;21556;55.782;37.528;2023-07-28T03:42:28;98242.50;;;24.52;100.00
35435;BME280;21556;55.782;37.528;2023-07-28T03:44:56;98286.16;;;23.95;100.00
35435;BME280;21556;55.782;37.528;2023-07-28T03:47:22;98318.31;;;23.95;100.00
35435;BME280;21556;55.782;37.528;2023-07-28T03:49:49;98342.97;;;24.31;100.00
35435;BME280;21556;55.782;37.528;2023-07-28T03:52:15;98391.53;;;23.64;100.00
35435;BME280;21556;55.782;37.528;2023-07-28T03:54:40;98409.81;;;23.56;100.00
35435;BME280;21556;55.782;37.528;2023-07-28T03:57:06;98465.06;;;23.25;100.00
35435;BME280;21556;55.782;37.528;2023-07-28T03:59:32;98397.66;;;23.35;100.00
35435;BME280;21556;55.782;37.528;2023-07-28T04:01:57;98422.69;;;22.67;100.00
35435;BME280;21556;55.782;37.528;2023-07-28T04:04:24;98379.25;;;22.97;100.00
35435;BME280;21556;55.782;37.528;2023-07-28T04:06:50;98348.13;;;22.96;100.00
35435;BME280;21556;55.782;37.528;2023-07-28T04:09:18;98340.53;;;22.03;100.00
35435;BME280;21556;55.782;37.528;2023-07-28T04:11:45;98284.38;;;22.22;100.00
35435;BME280;21556;55.782;37.528;2023-07-28T04:14:10;98181.94;;;22.23;100.00
35435;BME280;21556;55.782;37.528;2023-07-28T04:16:36;98167.41;;;22.44;100.00
35435;BME280;21556;55.782;37.528;2023-07-28T04:19:02;98121.00;;;22.29;100.00
35435;BME280;21556;55.782;37.528;2023-07-28T04:21:32;98101.81;;;23.00;100.00
35435;BME280;21556;55.782;37.528;2023-07-28T04:24:10;98084.03;;;22.53;100.00
35435;BME280;21556;55.782;37.528;2023-07-28T04:26:42;98074.66;;;22.46;100.00
35435;BME280;21556;55.782;37.528;2023-07-28T04:29:08;98083.28;;;22.35;100.00
35435;BME280;21556;55.782;37.528;2023-07-28T04:31:35;98109.56;;;22.27;100.00
35435;BME280;21556;55.782;37.528;2023-07-28T04:34:06;98098.63;;;22.16;100.00
35435;BME280;21556;55.782;37.528;2023-07-28T04:36:59;98087.25;;;22.28;100.00
35435;BME280;21556;55.782;37.528;2023-07-28T04:39:33;98105.50;;;22.36;100.00
35435;BME280;21556;55.782;37.528;2023-07-28T04:41:59;98128.25;;;22.59;100.00
35435;BME280;21556;55.782;37.528;2023-07-28T04:44:27;98136.34;;;22.57;100.00
35435;BME280;21556;55.782;37.528;2023-07-28T04:46:59;98135.47;;;22.89;100.00
35435;BME280;21556;55.782;37.528;2023-07-28T04:49:28;98130.88;;;22.91;100.00
35435;BME280;21556;55.782;37.528;2023-07-28T04:52:46;98127.75;;;22.21;100.00
35435;BME280;21556;55.782;37.528;2023-07-28T04:55:30;98141.81;;;23.02;100.00
35435;BME280;21556;55.782;37.528;2023-07-28T04:58:01;98149.38;;;22.64;100.00
35435;BME280;21556;55.782;37.528;2023-07-28T05:00:41;98159.22;;;22.63;100.00
35435;BME280;21556;55.782;37.528;2023-07-28T05:03:07;98148.41;;;23.26;100.00
35435;BME280;21556;55.782;37.528;2023-07-28T05:05:37;98151.72;;;23.46;100.00
35435;BME280;21556;55.782;37.528;2023-07-28T05:08:08;98156.69;;;23.66;100.00
35435;BME280;21556;55.782;37.528;2023-07-28T05:10:33;98152.84;;;24.00;100.00
35435;BME280;21556;55.782;37.528;2023-07-28T05:12:59;98149.28;;;24.14;100.00
35435;BME280;21556;55.782;37.528;2023-07-28T05:15:25;98164.88;;;24.22;100.00
35435;BME280;21556;55.782;37.528;2023-07-28T05:17:51;98169.00;;;24.13;100.00
35435;BME280;21556;55.782;37.528;2023-07-28T05:20:34;98189.28;;;22.98;100.00
35435;BME280;21556;55.782;37.528;2023-07-28T05:23:15;98196.97;;;23.04;100.00
35435;BME280;21556;55.782;37.528;2023-07-28T05:25:41;98183.84;;;23.00;100.00
35435;BME280;21556;55.782;37.528;2023-07-28T05:28:08;98198.16;;;23.15;100.00
35435;BME280;21556;55.782;37.528;2023-07-28T05:30:37;98203.94;;;23.07;100.00
35435;BME280;21556;55.782;37.528;2023-07-28T05:33:03;98195.97;;;23.51;100.00
35435;BME280;21556;55.782;37.528;2023-07-28T05:35:58;98202.13;;;23.38;100.00
35435;BME280;21556;55.782;37.528;2023-07-28T05:38:27;98190.81;;;23.18;100.00
35435;BME280;21556;55.782;37.528;2023-07-28T05:40:58;98191.88;;;23.30;100.00
35435;BME280;21556;55.782;37.528;2023-07-28T05:43:26;98182.69;;;24.09;100.00
35435;BME280;21556;55.782;37.528;2023-07-28T05:45:54;98178.19;;;24.23;100.00
35435;BME280;21556;55.782;37.528;2023-07-28T05:48:19;98173.66;;;23.81;100.00
35435;BME280;21556;55.782;37.528;2023-07-28T05:50:45;98192.03;;;23.43;100.00
35435;BME280;21556;55.782;37.528;2023-07-28T05:53:11;98188.34;;;24.04;100.00
35435;BME280;21556;55.782;37.528;2023-07-28T05:55:38;98173.88;;;24.07;100.00
35435;BME280;21556;55.782;37.528;2023-07-28T05:58:04;98175.78;;;23.76;100.00
35435;BME280;21556;55.782;37.528;2023-07-28T06:00:31;98182.66;;;23.36;100.00
35435;BME280;21556;55.782;37.528;2023-07-28T06:02:59;98174.84;;;24.06;100.00
35435;BME280;21556;55.782;37.528;2023-07-28T06:05:46;98172.63;;;23.84;100.00
35435;BME280;21556;55.782;37.528;2023-07-28T06:08:12;98180.31;;;24.04;100.00
35435;BME280;21556;55.782;37.528;2023-07-28T06:10:43;98188.81;;;23.82;100.00
35435;BME280;21556;55.782;37.528;2023-07-28T06:13:08;98207.41;;;23.69;100.00
35435;BME280;21556;55.782;37.528;2023-07-28T06:15:38;98219.16;;;23.67;100.00
35435;BME280;21556;55.782;37.528;2023-07-28T06:18:05;98206.88;;;23.63;100.00
35435;BME280;21556;55.782;37.528;2023-07-28T06:20:32;98186.22;;;24.23;100.00
35435;BME280;21556;55.782;37.528;2023-07-28T06:22:58;98193.00;;;24.29;100.00
35435;BME280;21556;55.782;37.528;2023-07-28T06:25:23;98159.25;;;24.41;100.00
35435;BME280;21556;55.782;37.528;2023-07-28T06:27:49;98177.22;;;24.24;100.00
35435;BME280;21556;55.782;37.528;2023-07-28T06:30:15;98193.38;;;24.37;100.00
35435;BME280;21556;55.782;37.528;2023-07-28T06:32:41;98188.94;;;24.65;100.00
35435;BME280;21556;55.782;37.528;2023-07-28T06:35:06;98209.50;;;24.52;100.00
35435;BME280;21556;55.782;37.528;2023-07-28T06:37:36;98237.03;;;24.54;100.00
35435;BME280;21556;55.782;37.528;2023-07-28T06:40:04;98305.66;;;24.27;100.00
35435;BME280;21556;55.782;37.528;2023-07-28T06:42:32;98329.91;;;24.10;100.00
35435;BME280;21556;55.782;37.528;2023-07-28T06:45:02;98319.50;;;24.20;100.00
35435;BME280;21556;55.782;37.528;2023-07-28T06:47:30;98361.56;;;24.03;100.00
35435;BME280;21556;55.782;37.528;2023-07-28T06:49:59;98381.84;;;23.77;100.00
35435;BME280;21556;55.782;37.528;2023-07-28T06:52:25;98475.03;;;23.55;100.00
35435;BME280;21556;55.782;37.528;2023-07-28T06:54:51;98491.56;;;23.30;100.00
35435;BME280;21556;55.782;37.528;2023-07-28T06:57:19;98492.66;;;23.10;100.00
35435;BME280;21556;55.782;37.528;2023-07-28T06:59:48;98443.81;;;23.06;100.00
35435;BME280;21556;55.782;37.528;2023-07-28T07:02:16;98411.88;;;23.03;100.00
35435;BME280;21556;55.782;37.528;2023-07-28T07:04:43;98392.53;;;22.98;100.00
35435;BME280;21556;55.782;37.528;2023-07-28T07:07:10;98361.19;;;22.85;100.00
35435;BME280;21556;55.782;37.528;2023-07-28T07:09:36;98349.81;;;22.97;100.00
35435;BME280;21556;55.782;37.528;2023-07-28T07:12:03;98333.66;;;22.82;100.00
35435;BME280;21556;55.782;37.528;2023-07-28T07:14:33;98304.19;;;23.00;100.00
35435;BME280;21556;55.782;37.528;2023-07-28T07:16:59;98287.53;;;22.95;100.00
35435;BME280;21556;55.782;37.528;2023-07-28T07:19:25;98252.38;;;22.69;100.00
35435;BME280;21556;55.782;37.528;2023-07-28T07:21:51;98231.56;;;23.08;100.00
35435;BME280;21556;55.782;37.528;2023-07-28T07:24:19;98263.19;;;22.83;100.00
35435;BME280;21556;55.782;37.528;2023-07-28T07:26:47;98285.56;;;23.14;100.00
35435;BME280;21556;55.782;37.528;2023-07-28T07:29:14;98257.44;;;23.07;100.00
35435;BME280;21556;55.782;37.528;2023-07-28T07:31:41;98239.81;;;23.19;100.00
35435;BME280;21556;55.782;37.528;2023-07-28T07:34:09;98216.75;;;23.32;100.00
35435;BME280;21556;55.782;37.528;2023-07-28T07:36:34;98232.22;;;23.11;100.00
35435;BME280;21556;55.782;37.528;2023-07-28T07:39:00;98242.84;;;23.13;100.00
35435;BME280;21556;55.782;37.528;2023-07-28T07:41:27;98260.09;;;23.23;100.00
35435;BME280;21556;55.782;37.528;2023-07-28T07:43:53;98270.09;;;23.35;100.00
35435;BME280;21556;55.782;37.528;2023-07-28T07:46:19;98276.75;;;23.28;100.00
35435;BME280;21556;55.782;37.528;2023-07-28T07:48:46;98279.59;;;23.09;100.00
35435;BME280;21556;55.782;37.528;2023-07-28T07:51:13;98284.00;;;22.94;100.00
35435;BME280;21556;55.782;37.528;2023-07-28T07:53:40;98277.28;;;23.03;100.00
35435;BME280;21556;55.782;37.528;2023-07-28T07:56:06;98285.47;;;23.32;100.00
35435;BME280;21556;55.782;37.528;2023-07-28T07:58:33;98277.44;;;23.62;100.00
35435;BME280;21556;55.782;37.528;2023-07-28T08:01:00;98282.53;;;23.82;100.00
35435;BME280;21556;55.782;37.528;2023-07-28T08:03:32;98285.09;;;23.84;100.00
35435;BME280;21556;55.782;37.528;2023-07-28T08:05:59;98277.91;;;23.84;100.00
35435;BME280;21556;55.782;37.528;2023-07-28T08:08:25;98277.94;;;23.98;100.00
35435;BME280;21556;55.782;37.528;2023-07-28T08:10:53;98271.47;;;24.31;100.00
35435;BME280;21556;55.782;37.528;2023-07-28T08:13:22;98281.09;;;24.64;100.00
35435;BME280;21556;55.782;37.528;2023-07-28T08:15:53;98280.84;;;24.95;100.00
35435;BME280;21556;55.782;37.528;2023-07-28T08:18:19;98281.09;;;25.47;100.00
35435;BME280;21556;55.782;37.528;2023-07-28T08:20:45;98271.28;;;26.12;100.00
35435;BME280;21556;55.782;37.528;2023-07-28T08:23:11;98269.47;;;26.51;100.00
35435;BME280;21556;55.782;37.528;2023-07-28T08:25:40;98256.53;;;27.43;100.00
35435;BME280;21556;55.782;37.528;2023-07-28T08:28:05;98257.44;;;27.78;100.00
35435;BME280;21556;55.782;37.528;2023-07-28T08:30:34;98246.78;;;28.57;100.00
35435;BME280;21556;55.782;37.528;2023-07-28T08:33:01;98264.69;;;29.03;100.00
35435;BME280;21556;55.782;37.528;2023-07-28T08:35:31;98278.28;;;29.13;100.00
35435;BME280;21556;55.782;37.528;2023-07-28T08:37:58;98289.31;;;29.96;100.00
35435;BME280;21556;55.782;37.528;2023-07-28T08:40:26;98280.59;;;28.95;100.00
35435;BME280;21556;55.782;37.528;2023-07-28T08:42:53;98284.47;;;28.12;100.00
35435;BME280;21556;55.782;37.528;2023-07-28T08:45:19;98296.31;;;27.98;100.00
35435;BME280;21556;55.782;37.528;2023-07-28T08:47:45;98298.94;;;27.63;100.00
35435;BME280;21556;55.782;37.528;2023-07-28T08:50:11;98305.44;;;26.87;100.00
35435;BME280;21556;55.782;37.528;2023-07-28T08:52:40;98302.25;;;26.69;100.00
35435;BME280;21556;55.782;37.528;2023-07-28T08:55:06;98309.31;;;26.32;100.00
35435;BME280;21556;55.782;37.528;2023-07-28T08:57:32;98314.91;;;26.29;100.00
35435;BME280;21556;55.782;37.528;2023-07-28T08:59:58;98310.16;;;25.94;100.00
35435;BME280;21556;55.782;37.528;2023-07-28T09:02:24;98307.06;;;25.73;100.00
35435;BME280;21556;55.782;37.528;2023-07-28T09:04:52;98328.66;;;25.72;100.00
35435;BME280;21556;55.782;37.528;2023-07-28T09:07:20;98324.19;;;25.85;100.00
35435;BME280;21556;55.782;37.528;2023-07-28T09:09:59;98324.69;;;25.77;100.00
35435;BME280;21556;55.782;37.528;2023-07-28T09:12:46;98330.03;;;25.37;100.00
35435;BME280;21556;55.782;37.528;2023-07-28T09:15:15;98333.47;;;25.39;100.00
35435;BME280;21556;55.782;37.528;2023-07-28T09:17:52;98336.19;;;25.52;100.00
35435;BME280;21556;55.782;37.528;2023-07-28T09:20:18;98341.91;;;25.33;100.00
35435;BME280;21556;55.782;37.528;2023-07-28T09:22:44;98355.00;;;25.11;100.00
35435;BME280;21556;55.782;37.528;2023-07-28T09:25:13;98350.84;;;25.34;100.00
35435;BME280;21556;55.782;37.528;2023-07-28T09:27:41;98354.13;;;25.25;100.00
35435;BME280;21556;55.782;37.528;2023-07-28T09:30:14;98375.13;;;25.18;100.00
35435;BME280;21556;55.782;37.528;2023-07-28T09:32:45;98382.50;;;24.86;100.00
35435;BME280;21556;55.782;37.528;2023-07-28T09:35:12;98389.69;;;25.28;100.00
35435;BME280;21556;55.782;37.528;2023-07-28T09:37:39;98400.44;;;25.14;100.00
35435;BME280;21556;55.782;37.528;2023-07-28T09:40:06;98420.16;;;25.27;100.00
35435;BME280;21556;55.782;37.528;2023-07-28T09:42:37;98421.25;;;25.10;100.00
35435;BME280;21556;55.782;37.528;2023-07-28T09:45:06;98405.59;;;25.31;100.00
35435;BME280;21556;55.782;37.528;2023-07-28T09:47:35;98412.50;;;25.21;100.00
35435;BME280;21556;55.782;37.528;2023-07-28T09:50:03;98398.97;;;25.23;100.00
35435;BME280;21556;55.782;37.528;2023-07-28T09:52:34;98369.47;;;25.23;100.00
35435;BME280;21556;55.782;37.528;2023-07-28T09:55:05;98372.22;;;25.35;100.00
35435;BME280;21556;55.782;37.528;2023-07-28T09:57:31;98393.06;;;25.17;100.00
35435;BME280;21556;55.782;37.528;2023-07-28T10:00:00;98405.88;;;25.12;100.00
35435;BME280;21556;55.782;37.528;2023-07-28T10:02:38;98410.00;;;25.18;100.00
35435;BME280;21556;55.782;37.528;2023-07-28T10:05:04;98400.44;;;25.14;100.00
35435;BME280;21556;55.782;37.528;2023-07-28T10:07:31;98390.53;;;25.29;100.00
35435;BME280;21556;55.782;37.528;2023-07-28T10:09:59;98383.94;;;25.20;100.00
35435;BME280;21556;55.782;37.528;2023-07-28T10:12:26;98371.00;;;25.12;100.00
35435;BME280;21556;55.782;37.528;2023-07-28T10:15:04;98383.53;;;25.26;100.00
35435;BME280;21556;55.782;37.528;2023-07-28T10:17:34;98409.34;;;25.29;100.00
35435;BME280;21556;55.782;37.528;2023-07-28T10:20:07;98419.13;;;25.15;100.00
35435;BME280;21556;55.782;37.528;2023-07-28T10:22:49;98428.06;;;24.71;100.00
35435;BME280;21556;55.782;37.528;2023-07-28T10:25:23;98418.22;;;24.72;100.00
35435;BME280;21556;55.782;37.528;2023-07-28T10:27:52;98399.22;;;24.46;100.00
35435;BME280;21556;55.782;37.528;2023-07-28T10:30:19;98388.31;;;24.49;100.00
35435;BME280;21556;55.782;37.528;2023-07-28T10:32:47;98389.19;;;24.79;100.00
35435;BME280;21556;55.782;37.528;2023-07-28T10:37:43;98366.88;;;24.92;100.00
35435;BME280;21556;55.782;37.528;2023-07-28T10:42:47;98333.44;;;24.98;100.00
35435;BME280;21556;55.782;37.528;2023-07-28T10:45:15;98334.81;;;24.62;100.00
35435;BME280;21556;55.782;37.528;2023-07-28T10:47:41;98339.09;;;24.93;100.00
35435;BME280;21556;55.782;37.528;2023-07-28T10:50:13;98334.72;;;24.64;100.00
35435;BME280;21556;55.782;37.528;2023-07-28T10:52:47;98342.28;;;24.13;100.00
35435;BME280;21556;55.782;37.528;2023-07-28T10:55:20;98346.50;;;24.17;100.00
35435;BME280;21556;55.782;37.528;2023-07-28T10:57:48;98380.19;;;24.21;100.00
35435;BME280;21556;55.782;37.528;2023-07-28T11:00:17;98370.13;;;24.69;100.00
35435;BME280;21556;55.782;37.528;2023-07-28T11:03:02;98365.22;;;24.02;100.00
35435;BME280;21556;55.782;37.528;2023-07-28T11:05:29;98340.16;;;24.48;100.00
35435;BME280;21556;55.782;37.528;2023-07-28T11:07:58;98328.31;;;24.22;100.00
35435;BME280;21556;55.782;37.528;2023-07-28T11:10:25;98313.69;;;24.27;100.00
35435;BME280;21556;55.782;37.528;2023-07-28T11:12:56;98316.72;;;24.21;100.00
35435;BME280;21556;55.782;37.528;2023-07-28T11:15:27;98289.53;;;23.99;100.00
35435;BME280;21556;55.782;37.528;2023-07-28T11:17:54;98289.56;;;24.27;100.00
35435;BME280;21556;55.782;37.528;2023-07-28T11:20:23;98286.00;;;23.98;100.00
35435;BME280;21556;55.782;37.528;2023-07-28T11:22:57;98300.81;;;23.90;100.00
35435;BME280;21556;55.782;37.528;2023-07-28T11:25:25;98342.31;;;24.27;100.00
35435;BME280;21556;55.782;37.528;2023-07-28T11:27:52;98367.75;;;24.79;100.00
35435;BME280;21556;55.782;37.528;2023-07-28T11:30:21;98364.28;;;24.91;100.00
35435;BME280;21556;55.782;37.528;2023-07-28T11:33:19;98393.41;;;24.83;100.00
35435;BME280;21556;55.782;37.528;2023-07-28T11:35:57;98409.31;;;24.71;100.00
35435;BME280;21556;55.782;37.528;2023-07-28T11:38:23;98422.53;;;24.74;100.00
35435;BME280;21556;55.782;37.528;2023-07-28T11:40:49;98422.25;;;24.35;100.00
35435;BME280;21556;55.782;37.528;2023-07-28T11:43:17;98423.88;;;24.37;100.00
35435;BME280;21556;55.782;37.528;2023-07-28T11:45:43;98430.25;;;24.50;100.00
35435;BME280;21556;55.782;37.528;2023-07-28T11:48:10;98415.97;;;24.50;100.00
35435;BME280;21556;55.782;37.528;2023-07-28T11:50:41;98408.41;;;24.12;100.00
35435;BME280;21556;55.782;37.528;2023-07-28T11:53:10;98389.22;;;24.34;100.00
35435;BME280;21556;55.782;37.528;2023-07-28T11:55:37;98397.44;;;24.01;100.00
35435;BME280;21556;55.782;37.528;2023-07-28T11:58:07;98419.63;;;24.49;100.00
35435;BME280;21556;55.782;37.528;2023-07-28T12:00:39;98428.44;;;24.51;100.00
35435;BME280;21556;55.782;37.528;2023-07-28T12:03:09;98429.84;;;24.42;100.00
35435;BME280;21556;55.782;37.528;2023-07-28T12:05:39;98438.63;;;24.74;100.00
35435;BME280;21556;55.782;37.528;2023-07-28T12:08:05;98439.69;;;25.01;100.00
35435;BME280;21556;55.782;37.528;2023-07-28T12:10:33;98449.28;;;25.05;100.00
35435;BME280;21556;55.782;37.528;2023-07-28T12:13:06;98441.41;;;24.87;100.00
35435;BME280;21556;55.782;37.528;2023-07-28T12:15:33;98462.19;;;23.93;100.00
35435;BME280;21556;55.782;37.528;2023-07-28T12:18:01;98471.22;;;23.59;100.00
35435;BME280;21556;55.782;37.528;2023-07-28T12:20:35;98474.47;;;23.33;100.00
35435;BME280;21556;55.782;37.528;2023-07-28T12:23:05;98482.72;;;22.44;100.00
35435;BME280;21556;55.782;37.528;2023-07-28T12:25:33;98502.66;;;22.37;100.00
35435;BME280;21556;55.782;37.528;2023-07-28T12:28:00;98511.22;;;23.13;100.00
35435;BME280;21556;55.782;37.528;2023-07-28T12:30:26;98501.84;;;22.87;100.00
35435;BME280;21556;55.782;37.528;2023-07-28T12:32:54;98513.75;;;22.99;100.00
35435;BME280;21556;55.782;37.528;2023-07-28T12:35:20;98516.25;;;23.02;100.00
35435;BME280;21556;55.782;37.528;2023-07-28T12:37:50;98520.28;;;23.26;100.00
35435;BME280;21556;55.782;37.528;2023-07-28T12:40:21;98515.16;;;23.06;100.00
35435;BME280;21556;55.782;37.528;2023-07-28T12:42:47;98530.03;;;23.27;100.00
35435;BME280;21556;55.782;37.528;2023-07-28T12:45:13;98522.38;;;23.21;100.00
35435;BME280;21556;55.782;37.528;2023-07-28T12:47:40;98529.44;;;23.22;100.00
35435;BME280;21556;55.782;37.528;2023-07-28T12:50:06;98532.78;;;22.93;100.00
35435;BME280;21556;55.782;37.528;2023-07-28T12:52:32;98527.63;;;22.19;100.00
35435;BME280;21556;55.782;37.528;2023-07-28T12:54:59;98526.19;;;23.00;100.00
35435;BME280;21556;55.782;37.528;2023-07-28T12:57:27;98529.09;;;22.95;100.00